Alamo Heights, Texas
Current Conditions -  °F | °C
As of 6:59 AM on Friday 28 Nov 2014 (Local Time) from KSAT Reporting Station
Broken Clouds Broken Clouds  
Wind Chill:   Ceiling: 900
Heat Index:   Visibility: 10mi
Dew Point:   Wind: 5mph
Humidity: 82%   Direction: 300°WNW
Pressure: 30.32"   Gusts: NA
Location:  29.4797°N, 98.4508°W
Report Text: KSAT 281259Z 30004KT 10SM BKN009 06/03 A3032 RMK AO2 T00610033
Loading
Personal Weather Stations






























Interactive Weather Map New forecast layout! Learn more

10-Day Weather Forecast

Advertisements
Track Severe Weather on mobile